sensor_id;sensor_type;location;lat;lon;timestamp;temperature;humidity
23813;DHT22;12087;45.190;5.688;2024-02-04T00:03:03;6.30;99.90
23813;DHT22;12087;45.190;5.688;2024-02-04T00:08:25;6.30;99.90
23813;DHT22;12087;45.190;5.688;2024-02-04T00:13:48;6.10;99.90
23813;DHT22;12087;45.190;5.688;2024-02-04T00:19:11;6.10;99.90
23813;DHT22;12087;45.190;5.688;2024-02-04T00:25:15;6.00;99.90
23813;DHT22;12087;45.190;5.688;2024-02-04T00:30:40;6.00;99.90
23813;DHT22;12087;45.190;5.688;2024-02-04T00:36:06;5.80;99.90
23813;DHT22;12087;45.190;5.688;2024-02-04T00:41:31;5.70;99.90
23813;DHT22;12087;45.190;5.688;2024-02-04T00:46:57;5.70;99.90
23813;DHT22;12087;45.190;5.688;2024-02-04T00:52:26;5.80;99.90
23813;DHT22;12087;45.190;5.688;2024-02-04T00:57:53;5.70;99.90
23813;DHT22;12087;45.190;5.688;2024-02-04T01:03:25;5.60;99.90
23813;DHT22;12087;45.190;5.688;2024-02-04T01:08:49;5.60;99.90
23813;DHT22;12087;45.190;5.688;2024-02-04T01:14:12;5.60;99.90
23813;DHT22;12087;45.190;5.688;2024-02-04T01:19:34;5.70;99.90
23813;DHT22;12087;45.190;5.688;2024-02-04T01:25:00;5.70;99.90
23813;DHT22;12087;45.190;5.688;2024-02-04T01:30:22;5.90;99.90
23813;DHT22;12087;45.190;5.688;2024-02-04T01:35:44;6.00;99.90
23813;DHT22;12087;45.190;5.688;2024-02-04T01:41:08;6.00;99.90
23813;DHT22;12087;45.190;5.688;2024-02-04T01:46:33;6.00;99.90
23813;DHT22;12087;45.190;5.688;2024-02-04T01:51:56;5.90;99.90
23813;DHT22;12087;45.190;5.688;2024-02-04T01:57:20;6.00;99.90
23813;DHT22;12087;45.190;5.688;2024-02-04T02:02:43;6.00;99.90
23813;DHT22;12087;45.190;5.688;2024-02-04T02:08:08;5.90;99.90
23813;DHT22;12087;45.190;5.688;2024-02-04T02:13:34;5.90;99.90
23813;DHT22;12087;45.190;5.688;2024-02-04T02:19:02;5.80;99.90
23813;DHT22;12087;45.190;5.688;2024-02-04T02:24:33;5.70;99.90
23813;DHT22;12087;45.190;5.688;2024-02-04T02:29:55;5.50;99.90
23813;DHT22;12087;45.190;5.688;2024-02-04T02:35:18;5.40;99.90
23813;DHT22;12087;45.190;5.688;2024-02-04T02:40:46;5.40;99.90
23813;DHT22;12087;45.190;5.688;2024-02-04T02:46:09;5.30;99.90
23813;DHT22;12087;45.190;5.688;2024-02-04T02:51:35;5.20;99.90
23813;DHT22;12087;45.190;5.688;2024-02-04T02:56:59;5.20;99.90
23813;DHT22;12087;45.190;5.688;2024-02-04T03:02:21;5.10;99.90
23813;DHT22;12087;45.190;5.688;2024-02-04T03:07:45;5.10;99.90
23813;DHT22;12087;45.190;5.688;2024-02-04T03:13:09;5.10;99.90
23813;DHT22;12087;45.190;5.688;2024-02-04T03:18:31;5.10;99.90
23813;DHT22;12087;45.190;5.688;2024-02-04T03:23:53;5.00;99.90
23813;DHT22;12087;45.190;5.688;2024-02-04T03:29:16;5.10;99.90
23813;DHT22;12087;45.190;5.688;2024-02-04T03:34:41;5.10;99.90
23813;DHT22;12087;45.190;5.688;2024-02-04T03:40:04;5.10;99.90
23813;DHT22;12087;45.190;5.688;2024-02-04T03:45:28;5.10;99.90
23813;DHT22;12087;45.190;5.688;2024-02-04T03:50:50;5.20;99.90
23813;DHT22;12087;45.190;5.688;2024-02-04T03:56:12;5.30;99.90
23813;DHT22;12087;45.190;5.688;2024-02-04T04:01:36;5.30;99.90
23813;DHT22;12087;45.190;5.688;2024-02-04T04:06:58;5.40;99.90
23813;DHT22;12087;45.190;5.688;2024-02-04T04:12:20;5.50;99.90
23813;DHT22;12087;45.190;5.688;2024-02-04T04:17:43;5.50;99.90
23813;DHT22;12087;45.190;5.688;2024-02-04T04:23:07;5.50;99.90
23813;DHT22;12087;45.190;5.688;2024-02-04T04:28:29;5.50;99.90
23813;DHT22;12087;45.190;5.688;2024-02-04T04:33:52;5.50;99.90
23813;DHT22;12087;45.190;5.688;2024-02-04T04:39:15;5.50;99.90
23813;DHT22;12087;45.190;5.688;2024-02-04T04:44:38;5.50;99.90
23813;DHT22;12087;45.190;5.688;2024-02-04T04:50:04;5.60;99.90
23813;DHT22;12087;45.190;5.688;2024-02-04T04:55:30;5.70;99.90
23813;DHT22;12087;45.190;5.688;2024-02-04T05:00:55;5.70;99.90
23813;DHT22;12087;45.190;5.688;2024-02-04T05:06:20;5.70;99.90
23813;DHT22;12087;45.190;5.688;2024-02-04T05:11:42;5.80;99.90
23813;DHT22;12087;45.190;5.688;2024-02-04T05:17:05;5.80;99.90
23813;DHT22;12087;45.190;5.688;2024-02-04T05:22:28;5.90;99.90
23813;DHT22;12087;45.190;5.688;2024-02-04T05:27:51;5.90;99.90
23813;DHT22;12087;45.190;5.688;2024-02-04T05:33:14;5.90;99.90
23813;DHT22;12087;45.190;5.688;2024-02-04T05:38:37;5.90;99.90
23813;DHT22;12087;45.190;5.688;2024-02-04T05:44:00;5.90;99.90
23813;DHT22;12087;45.190;5.688;2024-02-04T05:49:23;5.90;99.90
23813;DHT22;12087;45.190;5.688;2024-02-04T05:54:48;5.90;99.90
23813;DHT22;12087;45.190;5.688;2024-02-04T06:00:12;5.80;99.90
23813;DHT22;12087;45.190;5.688;2024-02-04T06:05:35;5.80;99.90
23813;DHT22;12087;45.190;5.688;2024-02-04T06:10:59;5.80;99.90
23813;DHT22;12087;45.190;5.688;2024-02-04T06:16:23;5.80;99.90
23813;DHT22;12087;45.190;5.688;2024-02-04T06:21:47;5.80;99.90
23813;DHT22;12087;45.190;5.688;2024-02-04T06:27:11;5.90;99.90
23813;DHT22;12087;45.190;5.688;2024-02-04T06:32:33;6.00;99.90
23813;DHT22;12087;45.190;5.688;2024-02-04T06:37:55;6.00;99.90
23813;DHT22;12087;45.190;5.688;2024-02-04T06:43:19;6.00;99.90
23813;DHT22;12087;45.190;5.688;2024-02-04T06:48:41;5.80;99.90
23813;DHT22;12087;45.190;5.688;2024-02-04T06:54:03;5.80;99.90
23813;DHT22;12087;45.190;5.688;2024-02-04T06:59:27;5.70;99.90
23813;DHT22;12087;45.190;5.688;2024-02-04T07:04:49;5.80;99.90
23813;DHT22;12087;45.190;5.688;2024-02-04T07:10:11;5.80;99.90
23813;DHT22;12087;45.190;5.688;2024-02-04T07:15:35;5.80;99.90
23813;DHT22;12087;45.190;5.688;2024-02-04T07:20:57;5.70;99.90
23813;DHT22;12087;45.190;5.688;2024-02-04T07:26:19;5.70;99.90
23813;DHT22;12087;45.190;5.688;2024-02-04T07:31:43;5.70;99.90
23813;DHT22;12087;45.190;5.688;2024-02-04T07:37:06;5.60;99.90
23813;DHT22;12087;45.190;5.688;2024-02-04T07:42:28;5.60;99.90
23813;DHT22;12087;45.190;5.688;2024-02-04T07:47:51;5.60;99.90
23813;DHT22;12087;45.190;5.688;2024-02-04T07:53:14;5.70;99.90
23813;DHT22;12087;45.190;5.688;2024-02-04T08:04:21;5.70;99.90
23813;DHT22;12087;45.190;5.688;2024-02-04T08:09:44;5.60;99.90
23813;DHT22;12087;45.190;5.688;2024-02-04T08:15:08;5.60;99.90
23813;DHT22;12087;45.190;5.688;2024-02-04T08:20:32;5.70;99.90
23813;DHT22;12087;45.190;5.688;2024-02-04T08:25:54;5.70;99.90
23813;DHT22;12087;45.190;5.688;2024-02-04T08:31:17;5.80;99.90
23813;DHT22;12087;45.190;5.688;2024-02-04T08:36:41;5.90;99.90
23813;DHT22;12087;45.190;5.688;2024-02-04T08:42:03;5.90;99.90
23813;DHT22;12087;45.190;5.688;2024-02-04T08:47:27;5.90;99.90
23813;DHT22;12087;45.190;5.688;2024-02-04T08:52:51;5.90;99.90
23813;DHT22;12087;45.190;5.688;2024-02-04T08:58:13;6.00;99.90
23813;DHT22;12087;45.190;5.688;2024-02-04T09:03:35;6.00;99.90
23813;DHT22;12087;45.190;5.688;2024-02-04T09:08:59;5.90;99.90
23813;DHT22;12087;45.190;5.688;2024-02-04T09:14:21;5.80;99.90
23813;DHT22;12087;45.190;5.688;2024-02-04T09:19:44;5.80;99.90
23813;DHT22;12087;45.190;5.688;2024-02-04T09:25:08;5.90;99.90
23813;DHT22;12087;45.190;5.688;2024-02-04T09:30:30;6.00;99.90
23813;DHT22;12087;45.190;5.688;2024-02-04T09:35:53;6.10;99.90
23813;DHT22;12087;45.190;5.688;2024-02-04T09:41:16;6.20;99.90
23813;DHT22;12087;45.190;5.688;2024-02-04T09:46:38;6.30;99.90
23813;DHT22;12087;45.190;5.688;2024-02-04T09:52:04;6.40;99.90
23813;DHT22;12087;45.190;5.688;2024-02-04T09:57:30;6.20;99.90
23813;DHT22;12087;45.190;5.688;2024-02-04T10:02:53;6.10;99.90
23813;DHT22;12087;45.190;5.688;2024-02-04T10:08:17;6.10;99.90
23813;DHT22;12087;45.190;5.688;2024-02-04T10:13:44;6.10;99.90
23813;DHT22;12087;45.190;5.688;2024-02-04T10:19:07;6.10;99.90
23813;DHT22;12087;45.190;5.688;2024-02-04T10:24:29;6.20;99.90
23813;DHT22;12087;45.190;5.688;2024-02-04T10:29:53;6.10;99.90
23813;DHT22;12087;45.190;5.688;2024-02-04T10:35:15;6.20;99.90
23813;DHT22;12087;45.190;5.688;2024-02-04T10:40:39;6.10;99.90
23813;DHT22;12087;45.190;5.688;2024-02-04T10:46:08;6.10;99.90
23813;DHT22;12087;45.190;5.688;2024-02-04T10:51:31;6.10;99.90
23813;DHT22;12087;45.190;5.688;2024-02-04T10:56:56;6.20;99.90
23813;DHT22;12087;45.190;5.688;2024-02-04T11:02:23;6.30;99.90
23813;DHT22;12087;45.190;5.688;2024-02-04T11:07:46;6.50;99.90
23813;DHT22;12087;45.190;5.688;2024-02-04T11:13:09;6.50;99.90
23813;DHT22;12087;45.190;5.688;2024-02-04T11:18:48;6.50;99.90
23813;DHT22;12087;45.190;5.688;2024-02-04T11:24:22;6.50;99.90
23813;DHT22;12087;45.190;5.688;2024-02-04T11:29:46;6.50;99.90
23813;DHT22;12087;45.190;5.688;2024-02-04T11:35:10;6.60;99.90
23813;DHT22;12087;45.190;5.688;2024-02-04T11:40:34;6.60;99.90
23813;DHT22;12087;45.190;5.688;2024-02-04T11:45:57;6.50;99.90
23813;DHT22;12087;45.190;5.688;2024-02-04T11:51:24;6.50;99.90
23813;DHT22;12087;45.190;5.688;2024-02-04T11:56:48;6.50;99.90
23813;DHT22;12087;45.190;5.688;2024-02-04T12:02:16;6.60;99.90
23813;DHT22;12087;45.190;5.688;2024-02-04T12:07:40;6.60;99.90
23813;DHT22;12087;45.190;5.688;2024-02-04T12:13:04;6.60;99.90
23813;DHT22;12087;45.190;5.688;2024-02-04T12:18:27;6.60;99.90
23813;DHT22;12087;45.190;5.688;2024-02-04T12:23:51;6.70;99.90
23813;DHT22;12087;45.190;5.688;2024-02-04T12:29:13;6.70;99.90
23813;DHT22;12087;45.190;5.688;2024-02-04T12:34:35;6.80;99.90
23813;DHT22;12087;45.190;5.688;2024-02-04T12:39:59;6.80;99.90
23813;DHT22;12087;45.190;5.688;2024-02-04T12:45:24;6.90;99.90
23813;DHT22;12087;45.190;5.688;2024-02-04T12:50:46;7.00;99.90
23813;DHT22;12087;45.190;5.688;2024-02-04T12:56:10;7.10;99.90
23813;DHT22;12087;45.190;5.688;2024-02-04T13:01:32;7.20;99.90
23813;DHT22;12087;45.190;5.688;2024-02-04T13:06:54;7.30;99.90
23813;DHT22;12087;45.190;5.688;2024-02-04T13:12:18;7.30;99.90
23813;DHT22;12087;45.190;5.688;2024-02-04T13:17:40;7.30;99.90
23813;DHT22;12087;45.190;5.688;2024-02-04T13:23:03;7.40;99.90
23813;DHT22;12087;45.190;5.688;2024-02-04T13:28:27;7.50;99.90
23813;DHT22;12087;45.190;5.688;2024-02-04T13:33:49;7.60;99.90
23813;DHT22;12087;45.190;5.688;2024-02-04T13:39:12;7.70;99.90
23813;DHT22;12087;45.190;5.688;2024-02-04T13:44:35;7.80;99.90
23813;DHT22;12087;45.190;5.688;2024-02-04T13:49:58;7.80;99.90
23813;DHT22;12087;45.190;5.688;2024-02-04T13:55:20;7.90;99.90
23813;DHT22;12087;45.190;5.688;2024-02-04T14:00:44;7.90;99.90
23813;DHT22;12087;45.190;5.688;2024-02-04T14:06:06;7.90;99.90
23813;DHT22;12087;45.190;5.688;2024-02-04T14:11:30;7.90;99.90
23813;DHT22;12087;45.190;5.688;2024-02-04T14:16:54;8.00;99.90
23813;DHT22;12087;45.190;5.688;2024-02-04T14:22:17;7.90;99.90
23813;DHT22;12087;45.190;5.688;2024-02-04T14:27:39;7.90;99.90
23813;DHT22;12087;45.190;5.688;2024-02-04T14:33:03;7.90;99.90
23813;DHT22;12087;45.190;5.688;2024-02-04T14:38:25;7.90;99.90
23813;DHT22;12087;45.190;5.688;2024-02-04T14:43:48;7.90;99.90
23813;DHT22;12087;45.190;5.688;2024-02-04T14:49:11;7.90;99.90
23813;DHT22;12087;45.190;5.688;2024-02-04T14:54:34;7.90;99.90
23813;DHT22;12087;45.190;5.688;2024-02-04T14:59:57;7.90;99.90
23813;DHT22;12087;45.190;5.688;2024-02-04T15:05:20;7.80;99.90
23813;DHT22;12087;45.190;5.688;2024-02-04T15:10:43;7.80;99.90
23813;DHT22;12087;45.190;5.688;2024-02-04T15:16:06;7.80;99.90
23813;DHT22;12087;45.190;5.688;2024-02-04T15:21:31;7.80;99.90
23813;DHT22;12087;45.190;5.688;2024-02-04T15:26:54;7.80;99.90
23813;DHT22;12087;45.190;5.688;2024-02-04T15:32:17;7.80;99.90
23813;DHT22;12087;45.190;5.688;2024-02-04T15:37:41;7.70;99.90
23813;DHT22;12087;45.190;5.688;2024-02-04T15:43:04;7.70;99.90
23813;DHT22;12087;45.190;5.688;2024-02-04T15:48:28;7.70;99.90
23813;DHT22;12087;45.190;5.688;2024-02-04T15:53:54;7.60;99.90
23813;DHT22;12087;45.190;5.688;2024-02-04T15:59:18;7.70;99.90
23813;DHT22;12087;45.190;5.688;2024-02-04T16:04:43;7.60;99.90
23813;DHT22;12087;45.190;5.688;2024-02-04T16:10:09;7.60;99.90
23813;DHT22;12087;45.190;5.688;2024-02-04T16:15:31;7.60;99.90
23813;DHT22;12087;45.190;5.688;2024-02-04T16:20:54;7.70;99.90
23813;DHT22;12087;45.190;5.688;2024-02-04T16:26:18;7.80;99.90
23813;DHT22;12087;45.190;5.688;2024-02-04T16:31:42;7.70;99.90
23813;DHT22;12087;45.190;5.688;2024-02-04T16:37:05;7.70;99.90
23813;DHT22;12087;45.190;5.688;2024-02-04T16:42:31;7.70;99.90
23813;DHT22;12087;45.190;5.688;2024-02-04T16:47:55;7.60;99.90
23813;DHT22;12087;45.190;5.688;2024-02-04T17:00:04;7.50;99.90
23813;DHT22;12087;45.190;5.688;2024-02-04T17:05:44;7.40;99.90
23813;DHT22;12087;45.190;5.688;2024-02-04T17:11:10;7.40;99.90
23813;DHT22;12087;45.190;5.688;2024-02-04T17:16:43;7.30;99.90
23813;DHT22;12087;45.190;5.688;2024-02-04T17:22:12;7.30;99.90
23813;DHT22;12087;45.190;5.688;2024-02-04T17:27:37;7.30;99.90
23813;DHT22;12087;45.190;5.688;2024-02-04T17:33:01;7.30;99.90
23813;DHT22;12087;45.190;5.688;2024-02-04T17:38:25;7.30;99.90
23813;DHT22;12087;45.190;5.688;2024-02-04T17:43:47;7.20;99.90
23813;DHT22;12087;45.190;5.688;2024-02-04T17:49:11;7.20;99.90
23813;DHT22;12087;45.190;5.688;2024-02-04T17:54:33;7.10;99.90
23813;DHT22;12087;45.190;5.688;2024-02-04T17:59:57;7.10;99.90
23813;DHT22;12087;45.190;5.688;2024-02-04T18:05:21;7.10;99.90
23813;DHT22;12087;45.190;5.688;2024-02-04T18:10:44;7.00;99.90
23813;DHT22;12087;45.190;5.688;2024-02-04T18:16:07;7.00;99.90
23813;DHT22;12087;45.190;5.688;2024-02-04T18:21:30;7.00;99.90
23813;DHT22;12087;45.190;5.688;2024-02-04T18:26:53;7.00;99.90
23813;DHT22;12087;45.190;5.688;2024-02-04T18:32:15;7.00;99.90
23813;DHT22;12087;45.190;5.688;2024-02-04T18:37:39;7.00;99.90
23813;DHT22;12087;45.190;5.688;2024-02-04T18:43:01;7.00;99.90
23813;DHT22;12087;45.190;5.688;2024-02-04T18:48:23;7.00;99.90
23813;DHT22;12087;45.190;5.688;2024-02-04T18:53:47;6.90;99.90
23813;DHT22;12087;45.190;5.688;2024-02-04T18:59:09;6.90;99.90
23813;DHT22;12087;45.190;5.688;2024-02-04T19:04:31;6.90;99.90
23813;DHT22;12087;45.190;5.688;2024-02-04T19:09:55;6.90;99.90
23813;DHT22;12087;45.190;5.688;2024-02-04T19:15:17;6.90;99.90
23813;DHT22;12087;45.190;5.688;2024-02-04T19:20:39;6.90;99.90
23813;DHT22;12087;45.190;5.688;2024-02-04T19:26:03;6.80;99.90
23813;DHT22;12087;45.190;5.688;2024-02-04T19:31:25;6.80;99.90
23813;DHT22;12087;45.190;5.688;2024-02-04T19:36:47;6.80;99.90
23813;DHT22;12087;45.190;5.688;2024-02-04T19:42:14;6.70;99.90
23813;DHT22;12087;45.190;5.688;2024-02-04T19:47:38;6.70;99.90
23813;DHT22;12087;45.190;5.688;2024-02-04T19:53:01;6.60;99.90
23813;DHT22;12087;45.190;5.688;2024-02-04T19:58:27;6.60;99.90
23813;DHT22;12087;45.190;5.688;2024-02-04T20:03:53;6.60;99.90
23813;DHT22;12087;45.190;5.688;2024-02-04T20:09:16;6.60;99.90
23813;DHT22;12087;45.190;5.688;2024-02-04T20:14:39;6.60;99.90
23813;DHT22;12087;45.190;5.688;2024-02-04T20:20:02;6.50;99.90
23813;DHT22;12087;45.190;5.688;2024-02-04T20:25:25;6.50;99.90
23813;DHT22;12087;45.190;5.688;2024-02-04T20:30:51;6.50;99.90
23813;DHT22;12087;45.190;5.688;2024-02-04T20:36:13;6.50;99.90
23813;DHT22;12087;45.190;5.688;2024-02-04T20:41:35;6.50;99.90
23813;DHT22;12087;45.190;5.688;2024-02-04T20:46:59;6.40;99.90
23813;DHT22;12087;45.190;5.688;2024-02-04T20:52:21;6.50;99.90
23813;DHT22;12087;45.190;5.688;2024-02-04T20:57:43;6.50;99.90
23813;DHT22;12087;45.190;5.688;2024-02-04T21:03:07;6.60;99.90
23813;DHT22;12087;45.190;5.688;2024-02-04T21:08:29;6.50;99.90
23813;DHT22;12087;45.190;5.688;2024-02-04T21:13:51;6.40;99.90
23813;DHT22;12087;45.190;5.688;2024-02-04T21:19:15;6.40;99.90
23813;DHT22;12087;45.190;5.688;2024-02-04T21:24:37;6.40;99.90
23813;DHT22;12087;45.190;5.688;2024-02-04T21:29:59;6.30;99.90
23813;DHT22;12087;45.190;5.688;2024-02-04T21:35:23;6.30;99.90
23813;DHT22;12087;45.190;5.688;2024-02-04T21:40:46;6.40;99.90
23813;DHT22;12087;45.190;5.688;2024-02-04T21:46:08;6.30;99.90
23813;DHT22;12087;45.190;5.688;2024-02-04T21:51:31;6.30;99.90
23813;DHT22;12087;45.190;5.688;2024-02-04T21:56:53;6.20;99.90
23813;DHT22;12087;45.190;5.688;2024-02-04T22:02:16;6.20;99.90
23813;DHT22;12087;45.190;5.688;2024-02-04T22:07:39;6.20;99.90
23813;DHT22;12087;45.190;5.688;2024-02-04T22:13:01;6.20;99.90
23813;DHT22;12087;45.190;5.688;2024-02-04T22:18:24;6.20;99.90
23813;DHT22;12087;45.190;5.688;2024-02-04T22:23:48;6.20;99.90
23813;DHT22;12087;45.190;5.688;2024-02-04T22:29:12;6.20;99.90
23813;DHT22;12087;45.190;5.688;2024-02-04T22:34:35;6.10;99.90
23813;DHT22;12087;45.190;5.688;2024-02-04T22:39:59;6.10;99.90
23813;DHT22;12087;45.190;5.688;2024-02-04T22:45:21;6.20;99.90
23813;DHT22;12087;45.190;5.688;2024-02-04T22:50:44;6.10;99.90
23813;DHT22;12087;45.190;5.688;2024-02-04T22:56:08;6.10;99.90
23813;DHT22;12087;45.190;5.688;2024-02-04T23:01:30;6.20;99.90
23813;DHT22;12087;45.190;5.688;2024-02-04T23:06:52;6.00;99.90
23813;DHT22;12087;45.190;5.688;2024-02-04T23:12:16;6.00;99.90
23813;DHT22;12087;45.190;5.688;2024-02-04T23:17:38;6.10;99.90
23813;DHT22;12087;45.190;5.688;2024-02-04T23:23:01;6.10;99.90
23813;DHT22;12087;45.190;5.688;2024-02-04T23:28:24;6.00;99.90
23813;DHT22;12087;45.190;5.688;2024-02-04T23:33:47;6.00;99.90
23813;DHT22;12087;45.190;5.688;2024-02-04T23:39:09;6.00;99.90
23813;DHT22;12087;45.190;5.688;2024-02-04T23:44:32;6.10;99.90
23813;DHT22;12087;45.190;5.688;2024-02-04T23:49:55;6.00;99.90
23813;DHT22;12087;45.190;5.688;2024-02-04T23:55:19;5.90;99.90
